createdAt,value
2023-02-03T00:00:09.206Z,18.60
2023-02-03T00:02:36.663Z,18.65
2023-02-03T00:05:04.319Z,18.49
2023-02-03T00:07:31.918Z,18.32
2023-02-03T00:09:59.165Z,18.43
2023-02-03T00:12:26.501Z,18.57
2023-02-03T00:14:53.900Z,18.58
2023-02-03T00:17:22.786Z,18.66
2023-02-03T00:19:50.042Z,18.16
2023-02-03T00:22:17.384Z,18.39
2023-02-03T00:24:45.011Z,17.92
2023-02-03T00:27:12.324Z,18.23
2023-02-03T00:29:39.680Z,18.59
2023-02-03T00:32:07.656Z,18.22
2023-02-03T00:34:36.751Z,18.30
2023-02-03T00:37:04.018Z,18.29
2023-02-03T00:39:31.348Z,18.32
2023-02-03T00:41:58.859Z,17.99
2023-02-03T00:44:26.069Z,18.38
2023-02-03T00:46:53.489Z,18.39
2023-02-03T00:49:20.638Z,18.27
2023-02-03T00:51:49.386Z,18.75
2023-02-03T00:54:17.272Z,18.33
2023-02-03T00:56:44.661Z,18.82
2023-02-03T00:59:11.874Z,18.60
2023-02-03T01:01:39.195Z,18.46
2023-02-03T01:04:06.673Z,18.75
2023-02-03T01:06:34.007Z,18.61
2023-02-03T01:09:04.377Z,18.70
2023-02-03T01:11:34.517Z,18.28
2023-02-03T01:14:01.642Z,18.11
2023-02-03T01:16:31.244Z,18.48
2023-02-03T01:18:59.063Z,18.27
2023-02-03T01:21:27.314Z,18.32
2023-02-03T01:23:54.856Z,18.60
2023-02-03T01:26:24.650Z,18.77
2023-02-03T01:28:52.854Z,18.80
2023-02-03T01:31:22.818Z,18.42
2023-02-03T01:33:51.586Z,18.75
2023-02-03T01:36:19.574Z,18.67
2023-02-03T01:38:47.399Z,18.74
2023-02-03T01:41:17.655Z,18.73
2023-02-03T01:43:49.055Z,18.84
2023-02-03T01:46:26.122Z,18.74
2023-02-03T01:48:56.969Z,18.18
2023-02-03T01:51:24.739Z,18.38
2023-02-03T01:53:54.086Z,18.91
2023-02-03T01:56:22.451Z,18.91
2023-02-03T01:58:51.715Z,18.99
2023-02-03T02:01:19.808Z,18.74
2023-02-03T02:03:51.361Z,18.93
2023-02-03T02:06:18.917Z,18.78
2023-02-03T02:08:49.270Z,18.82
2023-02-03T02:11:17.283Z,19.03
2023-02-03T02:13:46.828Z,19.03
2023-02-03T02:16:22.729Z,18.82
2023-02-03T02:19:10.277Z,18.95
2023-02-03T02:21:56.979Z,18.88
2023-02-03T02:24:50.419Z,18.95
2023-02-03T02:27:31.666Z,19.04
2023-02-03T02:30:33.918Z,19.08
2023-02-03T02:33:13.931Z,18.77
2023-02-03T02:35:51.117Z,18.86
2023-02-03T02:38:30.181Z,18.68
2023-02-03T02:41:09.676Z,18.80
2023-02-03T02:43:42.344Z,18.77
2023-02-03T02:46:14.035Z,19.05
2023-02-03T02:48:48.829Z,18.89
2023-02-03T02:51:17.378Z,19.04
2023-02-03T02:53:49.822Z,18.90
2023-02-03T02:56:19.169Z,18.83
2023-02-03T02:58:49.671Z,18.78
2023-02-03T03:01:17.833Z,18.71
2023-02-03T03:03:47.158Z,18.41
2023-02-03T03:06:20.614Z,18.62
2023-02-03T03:08:52.713Z,18.41
2023-02-03T03:11:19.929Z,18.66
2023-02-03T03:13:51.403Z,18.70
2023-02-03T03:16:23.648Z,18.70
2023-02-03T03:18:58.849Z,18.67
2023-02-03T03:21:30.101Z,18.78
2023-02-03T03:24:01.603Z,18.74
2023-02-03T03:26:35.123Z,19.07
2023-02-03T03:29:11.218Z,19.19
2023-02-03T03:31:40.813Z,18.75
2023-02-03T03:34:12.937Z,18.61
2023-02-03T03:36:46.519Z,18.72
2023-02-03T03:39:23.734Z,18.54
2023-02-03T03:41:59.131Z,18.81
2023-02-03T03:44:30.274Z,18.79
2023-02-03T03:47:07.560Z,18.82
2023-02-03T03:49:37.935Z,18.41
2023-02-03T03:52:09.726Z,18.86
2023-02-03T03:54:38.785Z,18.67
2023-02-03T03:57:12.245Z,18.61
2023-02-03T03:59:42.572Z,18.65
2023-02-03T04:02:10.305Z,18.53
2023-02-03T04:04:41.867Z,18.55
2023-02-03T04:07:09.283Z,18.57
2023-02-03T04:09:36.867Z,18.76
2023-02-03T04:12:05.369Z,18.65
2023-02-03T04:14:34.686Z,18.77
2023-02-03T04:17:02.304Z,18.69
2023-02-03T04:19:30.048Z,18.39
2023-02-03T04:21:58.930Z,18.53
2023-02-03T04:24:26.277Z,18.71
2023-02-03T04:26:53.366Z,18.54
2023-02-03T04:29:20.794Z,18.62
2023-02-03T04:31:47.980Z,18.54
2023-02-03T04:34:15.441Z,18.28
2023-02-03T04:36:44.356Z,18.61
2023-02-03T04:39:13.134Z,18.90
2023-02-03T04:41:40.258Z,18.81
2023-02-03T04:44:07.493Z,18.75
2023-02-03T04:46:34.753Z,18.89
2023-02-03T04:49:01.887Z,18.52
2023-02-03T04:51:29.497Z,18.78
2023-02-03T04:53:57.180Z,18.42
2023-02-03T04:56:26.524Z,18.67
2023-02-03T04:58:54.040Z,18.67
2023-02-03T05:01:21.276Z,18.91
2023-02-03T05:03:48.627Z,18.61
2023-02-03T05:06:15.962Z,18.47
2023-02-03T05:08:43.200Z,18.83
2023-02-03T05:11:10.419Z,18.83
2023-02-03T05:13:40.012Z,18.78
2023-02-03T05:16:07.686Z,18.75
2023-02-03T05:18:34.962Z,19.01
2023-02-03T05:21:02.400Z,19.11
2023-02-03T05:23:29.669Z,19.00
2023-02-03T05:25:57.046Z,19.14
2023-02-03T05:28:25.012Z,19.06
2023-02-03T05:30:54.157Z,19.10
2023-02-03T05:33:21.423Z,18.98
2023-02-03T05:35:49.035Z,18.97
2023-02-03T05:38:16.508Z,18.80
2023-02-03T05:40:43.857Z,18.75
2023-02-03T05:43:11.185Z,18.55
2023-02-03T05:45:38.547Z,18.76
2023-02-03T05:48:08.166Z,18.65
2023-02-03T05:50:38.500Z,18.72
2023-02-03T05:53:06.970Z,18.40
2023-02-03T05:55:35.767Z,18.73
2023-02-03T05:58:04.481Z,18.48
2023-02-03T06:00:31.730Z,18.47
2023-02-03T06:03:00.919Z,18.27
2023-02-03T06:05:31.203Z,18.17
2023-02-03T06:07:59.126Z,18.07
2023-02-03T06:10:27.130Z,17.91
2023-02-03T06:12:54.852Z,17.94
2023-02-03T06:15:22.058Z,17.97
2023-02-03T06:17:49.929Z,18.09
2023-02-03T06:20:19.098Z,17.97
2023-02-03T06:22:48.072Z,18.04
2023-02-03T06:25:15.435Z,18.15
2023-02-03T06:27:42.984Z,18.11
2023-02-03T06:30:11.778Z,18.22
2023-02-03T06:32:39.443Z,18.39
2023-02-03T06:35:07.309Z,18.44
2023-02-03T06:37:34.657Z,18.32
2023-02-03T06:40:04.666Z,18.49
2023-02-03T06:42:32.686Z,18.55
2023-02-03T06:44:59.964Z,18.59
2023-02-03T06:47:27.175Z,18.58
2023-02-03T06:49:54.539Z,18.56
2023-02-03T06:52:21.711Z,18.52
2023-02-03T06:54:48.908Z,18.55
2023-02-03T06:57:17.997Z,18.46
2023-02-03T06:59:45.399Z,18.46
2023-02-03T07:02:12.662Z,18.36
2023-02-03T07:04:40.146Z,18.47
2023-02-03T07:07:07.299Z,18.35
2023-02-03T07:09:34.502Z,18.37
2023-02-03T07:12:01.842Z,18.40
2023-02-03T07:14:30.549Z,18.45
2023-02-03T07:16:57.896Z,18.54
2023-02-03T07:19:25.695Z,18.48
2023-02-03T07:21:52.959Z,18.48
2023-02-03T07:24:20.149Z,18.56
2023-02-03T07:26:47.663Z,18.61
2023-02-03T07:29:14.828Z,18.57
2023-02-03T07:31:43.669Z,18.49
2023-02-03T07:34:11.668Z,18.43
2023-02-03T07:36:38.897Z,18.47
2023-02-03T07:39:06.150Z,18.48
2023-02-03T07:41:33.626Z,18.43
2023-02-03T07:44:00.972Z,18.51
2023-02-03T07:46:28.738Z,18.45
2023-02-03T07:48:57.512Z,18.40
2023-02-03T07:51:24.930Z,18.48
2023-02-03T07:53:52.460Z,18.42
2023-02-03T07:56:19.981Z,18.47
2023-02-03T07:58:47.352Z,18.33
2023-02-03T08:01:16.210Z,18.19
2023-02-03T08:03:45.230Z,18.13
2023-02-03T08:06:15.610Z,18.09
2023-02-03T08:08:43.134Z,18.03
2023-02-03T08:11:10.548Z,17.87
2023-02-03T08:13:37.833Z,17.98
2023-02-03T08:16:05.815Z,17.95
2023-02-03T08:18:33.551Z,17.93
2023-02-03T08:21:00.667Z,18.10
2023-02-03T08:23:29.477Z,18.00
2023-02-03T08:25:56.995Z,18.10
2023-02-03T08:28:24.247Z,18.10
2023-02-03T08:30:51.502Z,17.99
2023-02-03T08:33:19.614Z,17.91
2023-02-03T08:35:50.191Z,17.98
2023-02-03T08:38:17.940Z,18.07
2023-02-03T08:40:47.731Z,17.99
2023-02-03T08:43:15.103Z,18.09
2023-02-03T08:45:42.392Z,18.18
2023-02-03T08:48:10.050Z,18.17
2023-02-03T08:50:37.770Z,18.33
2023-02-03T08:53:05.007Z,18.46
2023-02-03T08:55:32.403Z,18.59
2023-02-03T08:58:01.230Z,18.75
2023-02-03T09:00:28.765Z,18.81
2023-02-03T09:02:56.571Z,18.76
2023-02-03T09:05:23.769Z,18.75
2023-02-03T09:07:51.014Z,18.81
2023-02-03T09:10:18.179Z,18.74
2023-02-03T09:12:45.549Z,18.60
2023-02-03T09:15:14.287Z,18.61
2023-02-03T09:17:42.169Z,18.55
2023-02-03T09:20:10.953Z,18.74
2023-02-03T09:22:38.175Z,18.31
2023-02-03T09:25:06.240Z,18.40
2023-02-03T09:27:33.607Z,18.29
2023-02-03T09:30:00.883Z,18.51
2023-02-03T09:32:30.976Z,18.60
2023-02-03T09:34:58.133Z,18.70
2023-02-03T09:37:25.460Z,18.69
2023-02-03T09:39:52.949Z,18.77
2023-02-03T09:42:33.438Z,19.09
2023-02-03T09:45:15.912Z,19.18
2023-02-03T09:47:45.140Z,19.15
2023-02-03T09:50:20.834Z,18.74
2023-02-03T09:52:49.676Z,18.47
2023-02-03T09:55:27.956Z,18.70
2023-02-03T09:58:01.570Z,18.58
2023-02-03T10:00:33.405Z,18.61
2023-02-03T10:03:08.426Z,18.76
2023-02-03T10:05:57.967Z,19.01
2023-02-03T10:08:42.206Z,18.93
2023-02-03T10:11:20.724Z,19.06
2023-02-03T10:14:00.651Z,19.41
2023-02-03T10:16:40.058Z,19.31
2023-02-03T10:19:13.408Z,19.37
2023-02-03T10:21:46.187Z,19.21
2023-02-03T10:24:17.788Z,19.12
2023-02-03T10:26:45.424Z,19.36
2023-02-03T10:29:19.995Z,19.14
2023-02-03T10:31:48.067Z,19.40
2023-02-03T10:34:18.401Z,19.22
2023-02-03T10:37:07.373Z,19.20
2023-02-03T10:39:43.474Z,19.43
2023-02-03T10:42:13.121Z,19.55
2023-02-03T10:44:42.974Z,19.64
2023-02-03T10:47:22.557Z,19.58
2023-02-03T10:49:53.708Z,19.50
2023-02-03T10:52:31.223Z,19.67
2023-02-03T10:54:59.143Z,19.58
2023-02-03T10:57:29.648Z,19.35
2023-02-03T11:00:08.049Z,19.75
2023-02-03T11:02:35.733Z,19.64
2023-02-03T11:05:20.894Z,19.63
2023-02-03T11:07:48.491Z,20.03
2023-02-03T11:10:34.040Z,20.16
2023-02-03T11:13:21.952Z,20.35
2023-02-03T11:15:54.588Z,20.44
2023-02-03T11:18:41.664Z,20.36
2023-02-03T11:21:17.129Z,20.38
2023-02-03T11:23:54.145Z,20.48
2023-02-03T11:26:25.051Z,20.60
2023-02-03T11:28:57.059Z,20.76
2023-02-03T11:31:27.441Z,20.81
2023-02-03T11:33:58.525Z,20.99
2023-02-03T11:36:29.886Z,20.82
2023-02-03T11:39:25.537Z,20.82
2023-02-03T11:44:25.826Z,21.09
2023-02-03T11:46:58.056Z,20.58
2023-02-03T11:50:07.674Z,20.72
2023-02-03T11:53:16.143Z,20.67
2023-02-03T11:56:09.387Z,20.72
2023-02-03T11:58:55.152Z,20.90
2023-02-03T12:01:37.162Z,20.97
2023-02-03T12:04:22.062Z,20.81
2023-02-03T12:07:06.076Z,20.71
2023-02-03T12:09:45.418Z,20.66
2023-02-03T12:12:37.260Z,20.60
2023-02-03T12:15:21.003Z,20.54
2023-02-03T12:18:07.109Z,20.60
2023-02-03T12:20:53.604Z,20.87
2023-02-03T12:23:35.939Z,20.32
2023-02-03T12:26:16.640Z,20.73
2023-02-03T12:28:56.801Z,20.93
2023-02-03T12:31:32.877Z,21.17
2023-02-03T12:34:12.341Z,21.11
2023-02-03T12:36:43.130Z,20.86
2023-02-03T12:39:20.238Z,21.19
2023-02-03T12:41:55.111Z,21.25
2023-02-03T12:44:30.075Z,21.18
2023-02-03T12:47:06.703Z,20.58
2023-02-03T12:49:41.679Z,20.86
2023-02-03T12:52:18.130Z,21.13
2023-02-03T12:54:52.786Z,20.93
2023-02-03T12:57:25.755Z,21.23
2023-02-03T13:00:16.481Z,21.17
2023-02-03T13:02:58.433Z,21.13
2023-02-03T13:05:34.727Z,21.07
2023-02-03T13:08:13.849Z,20.88
2023-02-03T13:10:48.965Z,20.88
2023-02-03T13:13:24.260Z,21.23
2023-02-03T13:15:55.769Z,21.20
2023-02-03T13:18:27.706Z,21.05
2023-02-03T13:20:56.186Z,21.10
2023-02-03T13:23:25.202Z,20.94
2023-02-03T13:26:34.034Z,21.18
2023-02-03T13:29:25.903Z,21.12
2023-02-03T13:32:11.215Z,20.83
2023-02-03T13:35:02.685Z,20.75
2023-02-03T13:37:48.922Z,20.90
2023-02-03T13:40:26.203Z,21.29
2023-02-03T13:42:56.263Z,21.33
2023-02-03T13:45:27.614Z,21.37
2023-02-03T13:48:02.544Z,21.38
2023-02-03T13:50:31.118Z,20.67
2023-02-03T13:53:01.933Z,20.74
2023-02-03T13:55:34.000Z,20.68
2023-02-03T13:58:01.656Z,20.47
2023-02-03T14:01:05.787Z,20.65
2023-02-03T14:03:46.268Z,20.93
2023-02-03T14:06:56.404Z,20.56
2023-02-03T14:09:35.108Z,20.63
2023-02-03T14:12:22.309Z,20.69
2023-02-03T14:15:00.912Z,20.58
2023-02-03T14:18:02.510Z,20.71
2023-02-03T14:21:11.782Z,20.43
2023-02-03T14:23:44.748Z,20.43
2023-02-03T14:26:22.694Z,20.52
2023-02-03T14:28:53.762Z,20.62
2023-02-03T14:31:22.896Z,20.63
2023-02-03T14:34:08.711Z,20.77
2023-02-03T14:36:51.005Z,20.64
2023-02-03T14:40:07.412Z,20.46
2023-02-03T14:43:04.854Z,20.38
2023-02-03T14:46:03.735Z,20.16
2023-02-03T14:48:57.356Z,20.22
2023-02-03T14:51:42.313Z,20.18
2023-02-03T14:54:24.656Z,20.42
2023-02-03T14:57:17.627Z,20.59
2023-02-03T14:59:48.430Z,20.41
2023-02-03T15:02:19.281Z,20.02
2023-02-03T15:04:48.029Z,19.80
2023-02-03T15:07:40.951Z,20.13
2023-02-03T15:10:16.037Z,20.30
2023-02-03T15:12:49.553Z,20.16
2023-02-03T15:15:23.859Z,20.10
2023-02-03T15:17:54.133Z,20.11
2023-02-03T15:20:35.151Z,20.74
2023-02-03T15:23:03.302Z,20.66
2023-02-03T15:25:32.241Z,20.65
2023-02-03T15:28:13.732Z,20.84
2023-02-03T15:30:41.497Z,20.76
2023-02-03T15:33:14.421Z,20.55
2023-02-03T15:35:44.459Z,20.26
2023-02-03T15:38:15.458Z,20.15
2023-02-03T15:40:48.455Z,20.15
2023-02-03T15:43:20.266Z,19.76
2023-02-03T15:45:59.477Z,19.52
2023-02-03T15:48:32.697Z,19.32
2023-02-03T15:51:08.419Z,19.16
2023-02-03T15:53:47.762Z,19.22
2023-02-03T15:56:22.583Z,19.13
2023-02-03T15:58:50.746Z,19.05
2023-02-03T16:01:23.439Z,19.03
2023-02-03T16:03:52.836Z,18.88
2023-02-03T16:06:25.639Z,18.83
2023-02-03T16:08:53.360Z,18.75
2023-02-03T16:11:31.787Z,18.64
2023-02-03T16:14:01.203Z,18.70
2023-02-03T16:16:32.152Z,18.57
2023-02-03T16:19:03.232Z,18.74
2023-02-03T16:21:36.384Z,18.75
2023-02-03T16:24:06.040Z,18.67
2023-02-03T16:26:35.115Z,18.66
2023-02-03T16:29:15.727Z,18.65
2023-02-03T16:31:46.402Z,18.70
2023-02-03T16:34:16.864Z,18.71
2023-02-03T16:36:45.174Z,18.49
2023-02-03T16:39:13.006Z,18.31
2023-02-03T16:41:41.865Z,18.42
2023-02-03T16:44:11.889Z,18.42
2023-02-03T16:46:39.272Z,18.33
2023-02-03T16:49:06.880Z,18.32
2023-02-03T16:51:40.885Z,18.39
2023-02-03T16:54:11.878Z,18.32
2023-02-03T16:56:39.276Z,18.47
2023-02-03T16:59:08.078Z,18.51
2023-02-03T17:01:36.062Z,18.62
2023-02-03T17:04:03.582Z,18.52
2023-02-03T17:06:31.225Z,18.64
2023-02-03T17:08:59.226Z,18.65
2023-02-03T17:11:27.163Z,18.68
2023-02-03T17:13:54.834Z,18.67
2023-02-03T17:16:26.831Z,18.74
2023-02-03T17:18:54.629Z,18.69
2023-02-03T17:21:24.063Z,18.66
2023-02-03T17:23:51.425Z,18.55
2023-02-03T17:26:19.277Z,18.66
2023-02-03T17:28:46.704Z,18.77
2023-02-03T17:31:16.236Z,18.77
2023-02-03T17:33:46.349Z,18.76
2023-02-03T17:36:15.395Z,18.78
2023-02-03T17:55:13.842Z,18.83
2023-02-03T17:57:41.229Z,18.78
2023-02-03T18:00:10.082Z,18.78
2023-02-03T18:02:37.521Z,18.85
2023-02-03T18:05:07.855Z,18.76
2023-02-03T18:07:35.200Z,18.75
2023-02-03T18:10:02.722Z,18.92
2023-02-03T18:12:29.923Z,19.00
2023-02-03T18:14:57.758Z,18.84
2023-02-03T18:17:25.382Z,18.85
2023-02-03T18:19:56.229Z,18.84
2023-02-03T18:22:25.709Z,18.85
2023-02-03T18:24:53.115Z,18.87
2023-02-03T18:27:20.710Z,18.84
2023-02-03T18:29:49.692Z,18.88
2023-02-03T18:32:17.337Z,19.05
2023-02-03T18:34:44.649Z,19.00
2023-02-03T18:37:12.695Z,18.88
2023-02-03T18:39:42.270Z,19.02
2023-02-03T18:42:09.802Z,19.11
2023-02-03T18:44:37.098Z,19.07
2023-02-03T18:47:04.662Z,19.04
2023-02-03T18:49:31.918Z,19.02
2023-02-03T18:51:59.521Z,19.05
2023-02-03T18:54:27.243Z,19.12
2023-02-03T18:56:56.137Z,19.09
2023-02-03T18:59:23.963Z,18.97
2023-02-03T19:01:51.853Z,18.91
2023-02-03T19:04:19.160Z,19.02
2023-02-03T19:06:46.504Z,18.98
2023-02-03T19:09:14.561Z,19.01
2023-02-03T19:11:41.759Z,19.10
2023-02-03T19:14:12.598Z,18.88
2023-02-03T19:16:39.974Z,18.90
2023-02-03T19:19:07.320Z,18.97
2023-02-03T19:21:34.585Z,19.00
2023-02-03T19:24:02.390Z,18.98
2023-02-03T19:26:29.609Z,18.80
2023-02-03T19:28:56.942Z,18.80
2023-02-03T19:31:25.988Z,18.88
2023-02-03T19:33:53.381Z,18.96
2023-02-03T19:36:21.566Z,19.06
2023-02-03T19:38:48.920Z,19.09
2023-02-03T19:41:16.248Z,19.02
2023-02-03T19:43:44.137Z,18.97
2023-02-03T19:46:13.320Z,18.87
2023-02-03T19:48:41.945Z,18.93
2023-02-03T19:51:09.600Z,18.93
2023-02-03T19:53:36.826Z,18.95
2023-02-03T19:56:04.506Z,18.87
2023-02-03T19:58:32.158Z,18.92
2023-02-03T20:00:59.577Z,18.97
2023-02-03T20:03:26.912Z,18.97
2023-02-03T20:05:55.739Z,18.93
2023-02-03T20:08:23.084Z,18.84
2023-02-03T20:10:50.603Z,18.75
2023-02-03T20:13:18.141Z,18.60
2023-02-03T20:15:45.334Z,18.61
2023-02-03T20:18:12.521Z,18.65
2023-02-03T20:20:39.834Z,18.69
2023-02-03T20:23:08.793Z,18.77
2023-02-03T20:25:36.210Z,18.75
2023-02-03T20:28:03.244Z,18.69
2023-02-03T20:30:30.922Z,18.61
2023-02-03T20:32:58.371Z,18.59
2023-02-03T20:35:26.680Z,18.64
2023-02-03T20:37:53.997Z,18.63
2023-02-03T20:40:24.827Z,18.64
2023-02-03T20:42:52.136Z,18.51
2023-02-03T20:45:20.990Z,18.62
2023-02-03T20:47:49.593Z,18.61
2023-02-03T20:50:18.196Z,18.49
2023-02-03T20:52:45.380Z,18.40
2023-02-03T20:55:14.474Z,18.41
2023-02-03T20:57:43.938Z,18.44
2023-02-03T21:00:14.571Z,18.51
2023-02-03T21:02:42.755Z,18.51
2023-02-03T21:05:26.307Z,18.51
2023-02-03T21:07:53.842Z,18.42
2023-02-03T21:10:22.541Z,18.46
2023-02-03T21:12:52.041Z,18.44
2023-02-03T21:15:20.403Z,18.40
2023-02-03T21:17:47.565Z,18.16
2023-02-03T21:20:24.914Z,18.35
2023-02-03T21:22:52.393Z,18.47
2023-02-03T21:25:28.690Z,18.53
2023-02-03T21:27:58.678Z,18.46
2023-02-03T21:30:28.390Z,18.53
2023-02-03T21:32:56.653Z,18.58
2023-02-03T21:35:27.334Z,18.48
2023-02-03T21:37:57.967Z,18.38
2023-02-03T21:40:26.685Z,18.52
2023-02-03T21:42:54.924Z,18.57
2023-02-03T21:45:35.183Z,18.49
2023-02-03T21:48:21.973Z,18.59
2023-02-03T21:50:49.266Z,18.59
2023-02-03T21:53:28.367Z,18.60
2023-02-03T21:55:55.848Z,18.56
2023-02-03T21:58:26.329Z,18.60
2023-02-03T22:00:56.569Z,18.57
2023-02-03T22:03:27.047Z,18.61
2023-02-03T22:06:13.554Z,18.65
2023-02-03T22:08:43.650Z,18.62
2023-02-03T22:11:11.314Z,18.60
2023-02-03T22:13:39.094Z,18.70
2023-02-03T22:16:08.520Z,18.67
2023-02-03T22:18:35.814Z,18.59
2023-02-03T22:21:03.154Z,18.43
2023-02-03T22:23:30.512Z,18.42
2023-02-03T22:25:57.648Z,18.50
2023-02-03T22:28:25.672Z,18.59
2023-02-03T22:30:53.363Z,18.60
2023-02-03T22:33:22.062Z,18.44
2023-02-03T22:35:49.574Z,18.47
2023-02-03T22:38:16.960Z,18.40
2023-02-03T22:40:44.487Z,18.49
2023-02-03T22:43:12.034Z,18.47
2023-02-03T22:45:39.434Z,18.52
2023-02-03T22:48:07.044Z,18.59
2023-02-03T22:50:36.945Z,18.66
2023-02-03T22:53:04.450Z,18.67
2023-02-03T22:55:31.964Z,18.66
2023-02-03T22:57:59.359Z,18.65
2023-02-03T23:00:27.225Z,18.55
2023-02-03T23:02:54.936Z,18.58
2023-02-03T23:05:22.661Z,18.65
2023-02-03T23:07:51.274Z,18.60
2023-02-03T23:10:21.010Z,18.69
2023-02-03T23:12:49.443Z,18.64
2023-02-03T23:15:17.316Z,18.63
2023-02-03T23:17:45.237Z,18.64
2023-02-03T23:20:14.549Z,18.62
2023-02-03T23:22:42.027Z,18.60
2023-02-03T23:25:12.703Z,18.43
2023-02-03T23:27:40.140Z,18.52
2023-02-03T23:30:08.701Z,18.45
2023-02-03T23:32:35.983Z,18.40
2023-02-03T23:35:04.222Z,18.45
2023-02-03T23:37:31.675Z,18.35
2023-02-03T23:39:58.853Z,18.30
2023-02-03T23:42:27.754Z,18.29
2023-02-03T23:44:55.026Z,18.26
2023-02-03T23:47:22.393Z,18.32
2023-02-03T23:49:49.766Z,18.27
2023-02-03T23:52:17.026Z,18.26
2023-02-03T23:54:44.287Z,18.28
2023-02-03T23:57:11.834Z,18.40
2023-02-03T23:59:40.684Z,18.49
